sensor_id;sensor_type;location;lat;lon;timestamp;P1;durP1;ratioP1;P2;durP2;ratioP2
44536;SDS011;30245;51.966;6.292;2023-06-26T00:02:09;3.90;;;2.33;;
44536;SDS011;30245;51.966;6.292;2023-06-26T00:04:35;3.10;;;2.53;;
44536;SDS011;30245;51.966;6.292;2023-06-26T00:07:02;2.05;;;1.92;;
44536;SDS011;30245;51.966;6.292;2023-06-26T00:09:29;3.13;;;2.83;;
44536;SDS011;30245;51.966;6.292;2023-06-26T00:11:54;4.45;;;2.50;;
44536;SDS011;30245;51.966;6.292;2023-06-26T00:14:20;3.08;;;2.88;;
44536;SDS011;30245;51.966;6.292;2023-06-26T00:16:46;3.55;;;1.73;;
44536;SDS011;30245;51.966;6.292;2023-06-26T00:19:14;3.10;;;2.75;;
44536;SDS011;30245;51.966;6.292;2023-06-26T00:21:40;2.33;;;2.03;;
44536;SDS011;30245;51.966;6.292;2023-06-26T00:24:06;2.83;;;2.58;;
44536;SDS011;30245;51.966;6.292;2023-06-26T00:26:31;3.55;;;2.85;;
44536;SDS011;30245;51.966;6.292;2023-06-26T00:28:57;3.33;;;3.05;;
44536;SDS011;30245;51.966;6.292;2023-06-26T00:31:22;3.13;;;2.70;;
44536;SDS011;30245;51.966;6.292;2023-06-26T00:33:48;2.65;;;2.42;;
44536;SDS011;30245;51.966;6.292;2023-06-26T00:36:13;2.97;;;2.70;;
44536;SDS011;30245;51.966;6.292;2023-06-26T00:38:39;4.13;;;2.30;;
44536;SDS011;30245;51.966;6.292;2023-06-26T00:41:05;3.88;;;3.25;;
44536;SDS011;30245;51.966;6.292;2023-06-26T00:43:37;4.15;;;2.80;;
44536;SDS011;30245;51.966;6.292;2023-06-26T00:46:03;3.95;;;3.65;;
44536;SDS011;30245;51.966;6.292;2023-06-26T00:48:28;3.63;;;3.42;;
44536;SDS011;30245;51.966;6.292;2023-06-26T00:50:54;3.20;;;2.97;;
44536;SDS011;30245;51.966;6.292;2023-06-26T00:53:20;4.05;;;2.58;;
44536;SDS011;30245;51.966;6.292;2023-06-26T00:55:47;3.58;;;3.35;;
44536;SDS011;30245;51.966;6.292;2023-06-26T00:58:12;4.80;;;3.47;;
44536;SDS011;30245;51.966;6.292;2023-06-26T01:00:38;3.88;;;3.58;;
44536;SDS011;30245;51.966;6.292;2023-06-26T01:03:04;3.70;;;3.40;;
44536;SDS011;30245;51.966;6.292;2023-06-26T01:05:29;3.38;;;3.10;;
44536;SDS011;30245;51.966;6.292;2023-06-26T01:07:56;5.03;;;3.15;;
44536;SDS011;30245;51.966;6.292;2023-06-26T01:12:49;3.55;;;2.75;;
44536;SDS011;30245;51.966;6.292;2023-06-26T01:15:15;3.75;;;3.40;;
44536;SDS011;30245;51.966;6.292;2023-06-26T01:17:40;3.90;;;3.55;;
44536;SDS011;30245;51.966;6.292;2023-06-26T01:20:10;3.83;;;3.50;;
44536;SDS011;30245;51.966;6.292;2023-06-26T01:22:38;4.15;;;3.83;;
44536;SDS011;30245;51.966;6.292;2023-06-26T01:25:18;3.55;;;3.25;;
44536;SDS011;30245;51.966;6.292;2023-06-26T01:27:54;5.72;;;3.95;;
44536;SDS011;30245;51.966;6.292;2023-06-26T01:30:21;3.65;;;3.35;;
44536;SDS011;30245;51.966;6.292;2023-06-26T01:32:48;4.45;;;4.00;;
44536;SDS011;30245;51.966;6.292;2023-06-26T01:35:14;3.33;;;3.03;;
44536;SDS011;30245;51.966;6.292;2023-06-26T01:37:40;5.40;;;4.07;;
44536;SDS011;30245;51.966;6.292;2023-06-26T01:40:06;4.05;;;3.75;;
44536;SDS011;30245;51.966;6.292;2023-06-26T01:42:33;3.88;;;3.38;;
44536;SDS011;30245;51.966;6.292;2023-06-26T01:45:00;5.40;;;4.20;;
44536;SDS011;30245;51.966;6.292;2023-06-26T01:47:33;3.80;;;3.40;;
44536;SDS011;30245;51.966;6.292;2023-06-26T01:50:05;3.88;;;3.58;;
44536;SDS011;30245;51.966;6.292;2023-06-26T01:55:46;4.90;;;3.22;;
44536;SDS011;30245;51.966;6.292;2023-06-26T01:58:16;4.20;;;3.38;;
44536;SDS011;30245;51.966;6.292;2023-06-26T02:00:45;4.18;;;3.63;;
44536;SDS011;30245;51.966;6.292;2023-06-26T02:03:11;5.53;;;3.72;;
44536;SDS011;30245;51.966;6.292;2023-06-26T02:05:37;4.10;;;3.80;;
44536;SDS011;30245;51.966;6.292;2023-06-26T02:08:02;4.72;;;4.18;;
44536;SDS011;30245;51.966;6.292;2023-06-26T02:10:28;3.42;;;3.22;;
44536;SDS011;30245;51.966;6.292;2023-06-26T02:12:54;4.40;;;3.95;;
44536;SDS011;30245;51.966;6.292;2023-06-26T02:15:20;3.80;;;3.50;;
44536;SDS011;30245;51.966;6.292;2023-06-26T02:17:46;3.78;;;3.58;;
44536;SDS011;30245;51.966;6.292;2023-06-26T02:20:13;4.30;;;3.38;;
44536;SDS011;30245;51.966;6.292;2023-06-26T02:22:40;4.20;;;3.75;;
44536;SDS011;30245;51.966;6.292;2023-06-26T02:25:06;3.58;;;3.28;;
44536;SDS011;30245;51.966;6.292;2023-06-26T02:27:32;2.90;;;2.60;;
44536;SDS011;30245;51.966;6.292;2023-06-26T02:29:58;2.58;;;2.38;;
44536;SDS011;30245;51.966;6.292;2023-06-26T02:32:23;3.55;;;2.92;;
44536;SDS011;30245;51.966;6.292;2023-06-26T02:34:49;6.72;;;2.47;;
44536;SDS011;30245;51.966;6.292;2023-06-26T02:37:16;2.25;;;2.03;;
44536;SDS011;30245;51.966;6.292;2023-06-26T02:39:42;3.42;;;3.13;;
44536;SDS011;30245;51.966;6.292;2023-06-26T02:42:08;3.05;;;2.85;;
44536;SDS011;30245;51.966;6.292;2023-06-26T02:44:34;3.47;;;2.67;;
44536;SDS011;30245;51.966;6.292;2023-06-26T02:46:59;3.38;;;3.08;;
44536;SDS011;30245;51.966;6.292;2023-06-26T02:49:25;3.63;;;3.17;;
44536;SDS011;30245;51.966;6.292;2023-06-26T02:51:50;2.53;;;2.33;;
44536;SDS011;30245;51.966;6.292;2023-06-26T02:54:16;6.07;;;3.20;;
44536;SDS011;30245;51.966;6.292;2023-06-26T02:56:42;2.20;;;1.98;;
44536;SDS011;30245;51.966;6.292;2023-06-26T02:59:07;3.88;;;2.58;;
44536;SDS011;30245;51.966;6.292;2023-06-26T03:01:33;4.53;;;3.28;;
44536;SDS011;30245;51.966;6.292;2023-06-26T03:03:59;3.95;;;2.90;;
44536;SDS011;30245;51.966;6.292;2023-06-26T03:06:25;4.35;;;3.20;;
44536;SDS011;30245;51.966;6.292;2023-06-26T03:08:52;6.45;;;2.72;;
44536;SDS011;30245;51.966;6.292;2023-06-26T03:11:18;2.35;;;1.88;;
44536;SDS011;30245;51.966;6.292;2023-06-26T03:13:44;3.15;;;1.92;;
44536;SDS011;30245;51.966;6.292;2023-06-26T03:16:10;2.85;;;2.63;;
44536;SDS011;30245;51.966;6.292;2023-06-26T03:18:35;2.63;;;1.83;;
44536;SDS011;30245;51.966;6.292;2023-06-26T03:21:01;1.80;;;1.42;;
44536;SDS011;30245;51.966;6.292;2023-06-26T03:23:26;2.80;;;1.80;;
44536;SDS011;30245;51.966;6.292;2023-06-26T03:25:52;3.33;;;1.55;;
44536;SDS011;30245;51.966;6.292;2023-06-26T03:28:18;2.03;;;1.00;;
44536;SDS011;30245;51.966;6.292;2023-06-26T03:30:43;2.20;;;0.77;;
44536;SDS011;30245;51.966;6.292;2023-06-26T03:33:09;2.65;;;0.70;;
44536;SDS011;30245;51.966;6.292;2023-06-26T03:35:35;2.17;;;1.23;;
44536;SDS011;30245;51.966;6.292;2023-06-26T03:38:01;3.72;;;0.70;;
44536;SDS011;30245;51.966;6.292;2023-06-26T03:40:27;1.73;;;0.88;;
44536;SDS011;30245;51.966;6.292;2023-06-26T03:42:52;1.70;;;1.08;;
44536;SDS011;30245;51.966;6.292;2023-06-26T03:45:18;2.35;;;0.60;;
44536;SDS011;30245;51.966;6.292;2023-06-26T03:47:44;2.38;;;0.98;;
44536;SDS011;30245;51.966;6.292;2023-06-26T03:50:13;2.95;;;0.80;;
44536;SDS011;30245;51.966;6.292;2023-06-26T03:52:39;9.75;;;1.17;;
44536;SDS011;30245;51.966;6.292;2023-06-26T03:55:05;2.17;;;1.30;;
44536;SDS011;30245;51.966;6.292;2023-06-26T03:57:31;2.00;;;1.02;;
44536;SDS011;30245;51.966;6.292;2023-06-26T03:59:56;6.47;;;1.40;;
44536;SDS011;30245;51.966;6.292;2023-06-26T04:02:22;3.45;;;1.20;;
44536;SDS011;30245;51.966;6.292;2023-06-26T04:04:48;2.05;;;0.60;;
44536;SDS011;30245;51.966;6.292;2023-06-26T04:07:13;1.35;;;0.50;;
44536;SDS011;30245;51.966;6.292;2023-06-26T04:09:39;4.82;;;1.02;;
44536;SDS011;30245;51.966;6.292;2023-06-26T04:12:05;2.03;;;1.02;;
44536;SDS011;30245;51.966;6.292;2023-06-26T04:14:31;1.20;;;0.75;;
44536;SDS011;30245;51.966;6.292;2023-06-26T04:16:57;2.10;;;0.60;;
44536;SDS011;30245;51.966;6.292;2023-06-26T04:19:23;1.92;;;0.50;;
44536;SDS011;30245;51.966;6.292;2023-06-26T04:21:49;1.70;;;0.60;;
44536;SDS011;30245;51.966;6.292;2023-06-26T04:24:14;5.45;;;1.38;;
44536;SDS011;30245;51.966;6.292;2023-06-26T04:26:40;3.15;;;0.80;;
44536;SDS011;30245;51.966;6.292;2023-06-26T04:29:10;2.08;;;0.98;;
44536;SDS011;30245;51.966;6.292;2023-06-26T04:31:36;2.78;;;1.25;;
44536;SDS011;30245;51.966;6.292;2023-06-26T04:34:01;2.13;;;1.45;;
44536;SDS011;30245;51.966;6.292;2023-06-26T04:36:27;1.55;;;0.65;;
44536;SDS011;30245;51.966;6.292;2023-06-26T04:38:56;3.72;;;1.58;;
44536;SDS011;30245;51.966;6.292;2023-06-26T04:41:23;4.28;;;1.08;;
44536;SDS011;30245;51.966;6.292;2023-06-26T04:43:49;4.68;;;1.00;;
44536;SDS011;30245;51.966;6.292;2023-06-26T04:46:15;2.35;;;0.75;;
44536;SDS011;30245;51.966;6.292;2023-06-26T04:48:41;2.83;;;0.75;;
44536;SDS011;30245;51.966;6.292;2023-06-26T04:51:07;4.53;;;0.75;;
44536;SDS011;30245;51.966;6.292;2023-06-26T04:53:33;6.38;;;1.50;;
44536;SDS011;30245;51.966;6.292;2023-06-26T04:55:58;2.90;;;1.13;;
44536;SDS011;30245;51.966;6.292;2023-06-26T04:58:24;3.92;;;1.13;;
44536;SDS011;30245;51.966;6.292;2023-06-26T05:00:50;4.25;;;1.02;;
44536;SDS011;30245;51.966;6.292;2023-06-26T05:03:16;4.05;;;0.80;;
44536;SDS011;30245;51.966;6.292;2023-06-26T05:05:43;6.95;;;2.03;;
44536;SDS011;30245;51.966;6.292;2023-06-26T05:08:21;4.15;;;1.13;;
44536;SDS011;30245;51.966;6.292;2023-06-26T05:10:48;3.90;;;1.25;;
44536;SDS011;30245;51.966;6.292;2023-06-26T05:13:15;8.90;;;2.25;;
44536;SDS011;30245;51.966;6.292;2023-06-26T05:15:43;4.60;;;1.20;;
44536;SDS011;30245;51.966;6.292;2023-06-26T05:18:09;4.28;;;1.00;;
44536;SDS011;30245;51.966;6.292;2023-06-26T05:20:35;3.83;;;1.02;;
44536;SDS011;30245;51.966;6.292;2023-06-26T05:23:01;5.00;;;1.17;;
44536;SDS011;30245;51.966;6.292;2023-06-26T05:25:28;4.28;;;1.35;;
44536;SDS011;30245;51.966;6.292;2023-06-26T05:27:55;3.80;;;1.15;;
44536;SDS011;30245;51.966;6.292;2023-06-26T05:30:22;3.40;;;1.05;;
44536;SDS011;30245;51.966;6.292;2023-06-26T05:32:50;6.18;;;2.15;;
44536;SDS011;30245;51.966;6.292;2023-06-26T05:35:17;8.10;;;2.33;;
44536;SDS011;30245;51.966;6.292;2023-06-26T05:37:45;5.45;;;1.52;;
44536;SDS011;30245;51.966;6.292;2023-06-26T05:40:12;6.15;;;0.98;;
44536;SDS011;30245;51.966;6.292;2023-06-26T05:42:38;6.88;;;1.10;;
44536;SDS011;30245;51.966;6.292;2023-06-26T05:45:04;7.82;;;1.45;;
44536;SDS011;30245;51.966;6.292;2023-06-26T05:47:30;5.38;;;1.85;;
44536;SDS011;30245;51.966;6.292;2023-06-26T05:49:56;5.75;;;1.58;;
44536;SDS011;30245;51.966;6.292;2023-06-26T05:52:21;5.22;;;1.90;;
44536;SDS011;30245;51.966;6.292;2023-06-26T05:54:47;4.10;;;1.23;;
44536;SDS011;30245;51.966;6.292;2023-06-26T05:57:13;3.35;;;1.67;;
44536;SDS011;30245;51.966;6.292;2023-06-26T05:59:41;4.88;;;1.45;;
44536;SDS011;30245;51.966;6.292;2023-06-26T06:02:08;10.50;;;3.42;;
44536;SDS011;30245;51.966;6.292;2023-06-26T06:04:34;5.18;;;1.30;;
44536;SDS011;30245;51.966;6.292;2023-06-26T06:07:00;6.25;;;1.05;;
44536;SDS011;30245;51.966;6.292;2023-06-26T06:09:26;6.60;;;1.38;;
44536;SDS011;30245;51.966;6.292;2023-06-26T06:11:51;10.15;;;1.25;;
44536;SDS011;30245;51.966;6.292;2023-06-26T06:14:17;3.63;;;1.15;;
44536;SDS011;30245;51.966;6.292;2023-06-26T06:16:42;3.03;;;0.93;;
44536;SDS011;30245;51.966;6.292;2023-06-26T06:19:08;6.80;;;1.42;;
44536;SDS011;30245;51.966;6.292;2023-06-26T06:24:01;3.58;;;1.00;;
44536;SDS011;30245;51.966;6.292;2023-06-26T06:26:28;2.65;;;1.10;;
44536;SDS011;30245;51.966;6.292;2023-06-26T06:28:53;5.80;;;1.15;;
44536;SDS011;30245;51.966;6.292;2023-06-26T06:31:19;4.70;;;0.80;;
44536;SDS011;30245;51.966;6.292;2023-06-26T06:33:45;2.28;;;1.00;;
44536;SDS011;30245;51.966;6.292;2023-06-26T06:36:11;5.88;;;0.80;;
44536;SDS011;30245;51.966;6.292;2023-06-26T06:38:36;2.83;;;0.73;;
44536;SDS011;30245;51.966;6.292;2023-06-26T06:41:02;3.70;;;1.20;;
44536;SDS011;30245;51.966;6.292;2023-06-26T06:43:27;3.15;;;0.80;;
44536;SDS011;30245;51.966;6.292;2023-06-26T06:45:53;2.22;;;0.95;;
44536;SDS011;30245;51.966;6.292;2023-06-26T06:48:19;4.15;;;0.80;;
44536;SDS011;30245;51.966;6.292;2023-06-26T06:50:44;6.30;;;1.67;;
44536;SDS011;30245;51.966;6.292;2023-06-26T06:53:10;2.60;;;1.35;;
44536;SDS011;30245;51.966;6.292;2023-06-26T06:55:35;2.65;;;0.75;;
44536;SDS011;30245;51.966;6.292;2023-06-26T06:58:01;2.97;;;1.25;;
44536;SDS011;30245;51.966;6.292;2023-06-26T07:00:27;1.30;;;0.60;;
44536;SDS011;30245;51.966;6.292;2023-06-26T07:02:53;2.80;;;0.70;;
44536;SDS011;30245;51.966;6.292;2023-06-26T07:05:19;2.05;;;1.10;;
44536;SDS011;30245;51.966;6.292;2023-06-26T07:07:45;1.23;;;0.47;;
44536;SDS011;30245;51.966;6.292;2023-06-26T07:10:11;3.15;;;0.70;;
44536;SDS011;30245;51.966;6.292;2023-06-26T07:12:38;2.22;;;0.80;;
44536;SDS011;30245;51.966;6.292;2023-06-26T07:15:04;3.85;;;0.68;;
44536;SDS011;30245;51.966;6.292;2023-06-26T07:17:31;2.35;;;0.65;;
44536;SDS011;30245;51.966;6.292;2023-06-26T07:19:58;1.70;;;0.75;;
44536;SDS011;30245;51.966;6.292;2023-06-26T07:22:25;1.70;;;0.50;;
44536;SDS011;30245;51.966;6.292;2023-06-26T07:24:51;1.27;;;0.40;;
44536;SDS011;30245;51.966;6.292;2023-06-26T07:27:17;3.00;;;0.50;;
44536;SDS011;30245;51.966;6.292;2023-06-26T07:29:45;1.33;;;0.93;;
44536;SDS011;30245;51.966;6.292;2023-06-26T07:32:11;5.72;;;0.35;;
44536;SDS011;30245;51.966;6.292;2023-06-26T07:34:37;1.60;;;0.52;;
44536;SDS011;30245;51.966;6.292;2023-06-26T07:37:02;2.33;;;0.50;;
44536;SDS011;30245;51.966;6.292;2023-06-26T07:39:28;1.73;;;0.68;;
44536;SDS011;30245;51.966;6.292;2023-06-26T07:41:54;1.75;;;0.60;;
44536;SDS011;30245;51.966;6.292;2023-06-26T07:44:20;1.75;;;0.65;;
44536;SDS011;30245;51.966;6.292;2023-06-26T07:46:46;1.92;;;0.40;;
44536;SDS011;30245;51.966;6.292;2023-06-26T07:49:12;1.52;;;0.30;;
44536;SDS011;30245;51.966;6.292;2023-06-26T07:51:38;6.30;;;0.70;;
44536;SDS011;30245;51.966;6.292;2023-06-26T07:54:03;1.85;;;0.65;;
44536;SDS011;30245;51.966;6.292;2023-06-26T07:56:29;0.70;;;0.32;;
44536;SDS011;30245;51.966;6.292;2023-06-26T07:58:55;2.17;;;0.45;;
44536;SDS011;30245;51.966;6.292;2023-06-26T08:01:23;2.05;;;0.70;;
44536;SDS011;30245;51.966;6.292;2023-06-26T08:03:49;0.93;;;0.40;;
44536;SDS011;30245;51.966;6.292;2023-06-26T08:06:15;1.77;;;0.60;;
44536;SDS011;30245;51.966;6.292;2023-06-26T08:08:41;1.42;;;0.40;;
44536;SDS011;30245;51.966;6.292;2023-06-26T08:11:07;1.08;;;0.40;;
44536;SDS011;30245;51.966;6.292;2023-06-26T08:13:32;1.60;;;0.70;;
44536;SDS011;30245;51.966;6.292;2023-06-26T08:15:58;0.82;;;0.43;;
44536;SDS011;30245;51.966;6.292;2023-06-26T08:18:23;1.60;;;0.40;;
44536;SDS011;30245;51.966;6.292;2023-06-26T08:20:49;1.15;;;0.30;;
44536;SDS011;30245;51.966;6.292;2023-06-26T08:23:14;1.20;;;0.52;;
44536;SDS011;30245;51.966;6.292;2023-06-26T08:25:40;2.13;;;0.32;;
44536;SDS011;30245;51.966;6.292;2023-06-26T08:28:06;1.77;;;0.50;;
44536;SDS011;30245;51.966;6.292;2023-06-26T08:30:32;1.20;;;0.40;;
44536;SDS011;30245;51.966;6.292;2023-06-26T08:32:57;2.05;;;0.40;;
44536;SDS011;30245;51.966;6.292;2023-06-26T08:35:23;0.82;;;0.50;;
44536;SDS011;30245;51.966;6.292;2023-06-26T08:37:50;3.17;;;0.60;;
44536;SDS011;30245;51.966;6.292;2023-06-26T08:40:16;0.90;;;0.30;;
44536;SDS011;30245;51.966;6.292;2023-06-26T08:42:45;0.90;;;0.40;;
44536;SDS011;30245;51.966;6.292;2023-06-26T08:45:11;1.30;;;0.40;;
44536;SDS011;30245;51.966;6.292;2023-06-26T08:47:37;1.05;;;0.40;;
44536;SDS011;30245;51.966;6.292;2023-06-26T08:50:07;1.20;;;0.40;;
44536;SDS011;30245;51.966;6.292;2023-06-26T08:52:43;0.63;;;0.32;;
44536;SDS011;30245;51.966;6.292;2023-06-26T08:55:15;2.70;;;0.57;;
44536;SDS011;30245;51.966;6.292;2023-06-26T08:57:43;1.42;;;0.65;;
44536;SDS011;30245;51.966;6.292;2023-06-26T09:00:09;0.75;;;0.40;;
44536;SDS011;30245;51.966;6.292;2023-06-26T09:02:36;3.25;;;0.50;;
44536;SDS011;30245;51.966;6.292;2023-06-26T09:05:02;2.67;;;0.50;;
44536;SDS011;30245;51.966;6.292;2023-06-26T09:07:28;1.52;;;0.43;;
44536;SDS011;30245;51.966;6.292;2023-06-26T09:09:54;1.02;;;0.40;;
44536;SDS011;30245;51.966;6.292;2023-06-26T09:12:20;1.30;;;0.30;;
44536;SDS011;30245;51.966;6.292;2023-06-26T09:14:45;1.65;;;0.30;;
44536;SDS011;30245;51.966;6.292;2023-06-26T09:17:12;1.85;;;0.50;;
44536;SDS011;30245;51.966;6.292;2023-06-26T09:19:38;1.80;;;0.50;;
44536;SDS011;30245;51.966;6.292;2023-06-26T09:22:05;1.20;;;0.38;;
44536;SDS011;30245;51.966;6.292;2023-06-26T09:24:37;1.38;;;0.50;;
44536;SDS011;30245;51.966;6.292;2023-06-26T09:27:02;1.40;;;0.45;;
44536;SDS011;30245;51.966;6.292;2023-06-26T09:29:28;1.73;;;0.40;;
44536;SDS011;30245;51.966;6.292;2023-06-26T09:31:55;0.98;;;0.50;;
44536;SDS011;30245;51.966;6.292;2023-06-26T09:34:21;1.63;;;0.43;;
44536;SDS011;30245;51.966;6.292;2023-06-26T09:36:47;3.33;;;0.70;;
44536;SDS011;30245;51.966;6.292;2023-06-26T09:39:14;4.57;;;0.60;;
44536;SDS011;30245;51.966;6.292;2023-06-26T09:41:40;0.90;;;0.80;;
44536;SDS011;30245;51.966;6.292;2023-06-26T09:44:09;1.67;;;0.40;;
44536;SDS011;30245;51.966;6.292;2023-06-26T09:46:37;2.38;;;0.40;;
44536;SDS011;30245;51.966;6.292;2023-06-26T09:51:30;2.47;;;0.35;;
44536;SDS011;30245;51.966;6.292;2023-06-26T09:53:57;1.25;;;0.20;;
44536;SDS011;30245;51.966;6.292;2023-06-26T09:56:23;1.00;;;0.30;;
44536;SDS011;30245;51.966;6.292;2023-06-26T09:58:49;2.15;;;0.20;;
44536;SDS011;30245;51.966;6.292;2023-06-26T10:01:15;0.93;;;0.20;;
44536;SDS011;30245;51.966;6.292;2023-06-26T10:03:42;2.20;;;0.73;;
44536;SDS011;30245;51.966;6.292;2023-06-26T10:06:09;0.73;;;0.30;;
44536;SDS011;30245;51.966;6.292;2023-06-26T10:08:36;0.35;;;0.20;;
44536;SDS011;30245;51.966;6.292;2023-06-26T10:11:04;2.15;;;0.20;;
44536;SDS011;30245;51.966;6.292;2023-06-26T10:13:35;0.70;;;0.10;;
44536;SDS011;30245;51.966;6.292;2023-06-26T10:16:05;0.93;;;0.20;;
44536;SDS011;30245;51.966;6.292;2023-06-26T10:18:33;0.60;;;0.10;;
44536;SDS011;30245;51.966;6.292;2023-06-26T10:21:01;0.73;;;0.10;;
44536;SDS011;30245;51.966;6.292;2023-06-26T10:23:28;0.87;;;0.20;;
44536;SDS011;30245;51.966;6.292;2023-06-26T10:25:55;1.25;;;0.20;;
44536;SDS011;30245;51.966;6.292;2023-06-26T10:28:25;1.33;;;0.20;;
44536;SDS011;30245;51.966;6.292;2023-06-26T10:30:53;0.63;;;0.20;;
44536;SDS011;30245;51.966;6.292;2023-06-26T10:33:20;1.13;;;0.10;;
44536;SDS011;30245;51.966;6.292;2023-06-26T10:35:47;1.05;;;0.38;;
44536;SDS011;30245;51.966;6.292;2023-06-26T10:38:13;0.93;;;0.20;;
44536;SDS011;30245;51.966;6.292;2023-06-26T10:40:42;0.88;;;0.10;;
44536;SDS011;30245;51.966;6.292;2023-06-26T10:43:10;0.57;;;0.13;;
44536;SDS011;30245;51.966;6.292;2023-06-26T10:45:37;1.73;;;0.17;;
44536;SDS011;30245;51.966;6.292;2023-06-26T10:48:15;1.15;;;0.10;;
44536;SDS011;30245;51.966;6.292;2023-06-26T10:50:41;1.95;;;0.20;;
44536;SDS011;30245;51.966;6.292;2023-06-26T10:55:35;0.95;;;0.20;;
44536;SDS011;30245;51.966;6.292;2023-06-26T11:00:28;0.43;;;0.20;;
44536;SDS011;30245;51.966;6.292;2023-06-26T11:02:54;5.35;;;0.55;;
44536;SDS011;30245;51.966;6.292;2023-06-26T11:05:24;0.75;;;0.28;;
44536;SDS011;30245;51.966;6.292;2023-06-26T11:08:09;0.40;;;0.10;;
44536;SDS011;30245;51.966;6.292;2023-06-26T11:10:51;0.77;;;0.10;;
44536;SDS011;30245;51.966;6.292;2023-06-26T11:13:18;0.38;;;0.20;;
44536;SDS011;30245;51.966;6.292;2023-06-26T11:15:45;0.57;;;0.20;;
44536;SDS011;30245;51.966;6.292;2023-06-26T11:18:12;1.67;;;0.20;;
44536;SDS011;30245;51.966;6.292;2023-06-26T11:20:38;0.55;;;0.10;;
44536;SDS011;30245;51.966;6.292;2023-06-26T11:23:04;0.70;;;0.10;;
44536;SDS011;30245;51.966;6.292;2023-06-26T11:25:35;4.57;;;0.10;;
44536;SDS011;30245;51.966;6.292;2023-06-26T11:28:05;0.35;;;0.10;;
44536;SDS011;30245;51.966;6.292;2023-06-26T11:30:34;1.13;;;0.20;;
44536;SDS011;30245;51.966;6.292;2023-06-26T11:33:06;0.32;;;0.10;;
44536;SDS011;30245;51.966;6.292;2023-06-26T11:35:34;3.15;;;0.20;;
44536;SDS011;30245;51.966;6.292;2023-06-26T11:38:00;1.48;;;0.10;;
44536;SDS011;30245;51.966;6.292;2023-06-26T11:40:30;0.50;;;0.10;;
44536;SDS011;30245;51.966;6.292;2023-06-26T11:42:59;3.92;;;0.10;;
44536;SDS011;30245;51.966;6.292;2023-06-26T11:45:30;0.73;;;0.10;;
44536;SDS011;30245;51.966;6.292;2023-06-26T11:47:57;0.80;;;0.10;;
44536;SDS011;30245;51.966;6.292;2023-06-26T11:50:23;0.25;;;0.10;;
44536;SDS011;30245;51.966;6.292;2023-06-26T11:52:56;0.43;;;0.10;;
44536;SDS011;30245;51.966;6.292;2023-06-26T11:55:22;1.92;;;0.28;;
44536;SDS011;30245;51.966;6.292;2023-06-26T11:57:49;0.60;;;0.10;;
44536;SDS011;30245;51.966;6.292;2023-06-26T12:00:17;1.83;;;0.50;;
44536;SDS011;30245;51.966;6.292;2023-06-26T12:02:44;0.80;;;0.20;;
44536;SDS011;30245;51.966;6.292;2023-06-26T12:05:11;1.27;;;0.20;;
44536;SDS011;30245;51.966;6.292;2023-06-26T12:07:41;2.30;;;0.10;;
44536;SDS011;30245;51.966;6.292;2023-06-26T12:10:10;0.52;;;0.10;;
44536;SDS011;30245;51.966;6.292;2023-06-26T12:12:37;0.17;;;0.05;;
44536;SDS011;30245;51.966;6.292;2023-06-26T12:15:03;0.85;;;0.20;;
44536;SDS011;30245;51.966;6.292;2023-06-26T12:17:30;0.57;;;0.10;;
44536;SDS011;30245;51.966;6.292;2023-06-26T12:19:56;0.60;;;0.28;;
44536;SDS011;30245;51.966;6.292;2023-06-26T12:22:21;0.55;;;0.10;;
44536;SDS011;30245;51.966;6.292;2023-06-26T12:24:47;1.98;;;0.13;;
44536;SDS011;30245;51.966;6.292;2023-06-26T12:27:14;0.98;;;0.30;;
44536;SDS011;30245;51.966;6.292;2023-06-26T12:29:45;1.05;;;0.15;;
44536;SDS011;30245;51.966;6.292;2023-06-26T12:32:15;0.85;;;0.10;;
44536;SDS011;30245;51.966;6.292;2023-06-26T12:34:41;0.28;;;0.20;;
44536;SDS011;30245;51.966;6.292;2023-06-26T12:37:11;1.05;;;0.10;;
44536;SDS011;30245;51.966;6.292;2023-06-26T12:39:51;0.80;;;0.20;;
44536;SDS011;30245;51.966;6.292;2023-06-26T12:42:18;1.10;;;0.15;;
44536;SDS011;30245;51.966;6.292;2023-06-26T12:44:45;1.10;;;0.20;;
44536;SDS011;30245;51.966;6.292;2023-06-26T12:47:12;0.95;;;0.20;;
44536;SDS011;30245;51.966;6.292;2023-06-26T12:49:40;4.03;;;0.40;;
44536;SDS011;30245;51.966;6.292;2023-06-26T12:54:36;0.30;;;0.10;;
44536;SDS011;30245;51.966;6.292;2023-06-26T12:57:03;1.33;;;0.10;;
44536;SDS011;30245;51.966;6.292;2023-06-26T12:59:29;0.52;;;0.10;;
44536;SDS011;30245;51.966;6.292;2023-06-26T13:01:56;1.27;;;0.10;;
44536;SDS011;30245;51.966;6.292;2023-06-26T13:04:22;0.73;;;0.20;;
44536;SDS011;30245;51.966;6.292;2023-06-26T13:06:47;0.40;;;0.20;;
44536;SDS011;30245;51.966;6.292;2023-06-26T13:09:13;0.45;;;0.10;;
44536;SDS011;30245;51.966;6.292;2023-06-26T13:11:39;0.17;;;0.03;;
44536;SDS011;30245;51.966;6.292;2023-06-26T13:14:04;1.48;;;0.10;;
44536;SDS011;30245;51.966;6.292;2023-06-26T13:16:30;1.83;;;0.20;;
44536;SDS011;30245;51.966;6.292;2023-06-26T13:18:57;1.00;;;0.30;;
44536;SDS011;30245;51.966;6.292;2023-06-26T13:21:23;0.40;;;0.10;;
44536;SDS011;30245;51.966;6.292;2023-06-26T13:23:49;0.82;;;0.25;;
44536;SDS011;30245;51.966;6.292;2023-06-26T13:26:14;1.60;;;0.10;;
44536;SDS011;30245;51.966;6.292;2023-06-26T13:28:40;0.77;;;0.10;;
44536;SDS011;30245;51.966;6.292;2023-06-26T13:31:05;0.60;;;0.10;;
44536;SDS011;30245;51.966;6.292;2023-06-26T13:33:31;1.55;;;0.00;;
44536;SDS011;30245;51.966;6.292;2023-06-26T13:35:57;0.30;;;0.10;;
44536;SDS011;30245;51.966;6.292;2023-06-26T13:38:23;3.38;;;0.00;;
44536;SDS011;30245;51.966;6.292;2023-06-26T13:40:53;0.68;;;0.20;;
44536;SDS011;30245;51.966;6.292;2023-06-26T13:43:20;1.65;;;0.10;;
44536;SDS011;30245;51.966;6.292;2023-06-26T13:45:46;0.25;;;0.10;;
44536;SDS011;30245;51.966;6.292;2023-06-26T13:48:12;2.03;;;0.10;;
44536;SDS011;30245;51.966;6.292;2023-06-26T13:50:38;0.40;;;0.10;;
44536;SDS011;30245;51.966;6.292;2023-06-26T13:53:04;0.30;;;0.10;;
44536;SDS011;30245;51.966;6.292;2023-06-26T13:55:30;0.10;;;0.00;;
44536;SDS011;30245;51.966;6.292;2023-06-26T13:57:56;0.20;;;0.00;;
44536;SDS011;30245;51.966;6.292;2023-06-26T14:00:22;0.50;;;0.10;;
44536;SDS011;30245;51.966;6.292;2023-06-26T14:02:48;0.52;;;0.10;;
44536;SDS011;30245;51.966;6.292;2023-06-26T14:05:13;0.30;;;0.00;;
44536;SDS011;30245;51.966;6.292;2023-06-26T14:07:39;1.15;;;0.10;;
44536;SDS011;30245;51.966;6.292;2023-06-26T14:10:05;0.40;;;0.00;;
44536;SDS011;30245;51.966;6.292;2023-06-26T14:12:31;0.43;;;0.10;;
44536;SDS011;30245;51.966;6.292;2023-06-26T14:14:57;0.10;;;0.00;;
44536;SDS011;30245;51.966;6.292;2023-06-26T14:17:23;2.45;;;0.30;;
44536;SDS011;30245;51.966;6.292;2023-06-26T14:19:51;0.80;;;0.10;;
44536;SDS011;30245;51.966;6.292;2023-06-26T14:22:19;0.30;;;0.10;;
44536;SDS011;30245;51.966;6.292;2023-06-26T14:24:45;0.57;;;0.03;;
44536;SDS011;30245;51.966;6.292;2023-06-26T14:27:11;0.82;;;0.30;;
44536;SDS011;30245;51.966;6.292;2023-06-26T14:29:36;1.42;;;0.10;;
44536;SDS011;30245;51.966;6.292;2023-06-26T14:32:02;0.57;;;0.00;;
44536;SDS011;30245;51.966;6.292;2023-06-26T14:34:28;1.40;;;0.10;;
44536;SDS011;30245;51.966;6.292;2023-06-26T14:36:54;2.08;;;0.10;;
44536;SDS011;30245;51.966;6.292;2023-06-26T14:39:20;0.10;;;0.00;;
44536;SDS011;30245;51.966;6.292;2023-06-26T14:41:46;0.10;;;0.00;;
44536;SDS011;30245;51.966;6.292;2023-06-26T14:44:13;0.40;;;0.10;;
44536;SDS011;30245;51.966;6.292;2023-06-26T14:46:39;0.20;;;0.10;;
44536;SDS011;30245;51.966;6.292;2023-06-26T14:49:04;0.55;;;0.10;;
44536;SDS011;30245;51.966;6.292;2023-06-26T14:51:30;0.30;;;0.10;;
44536;SDS011;30245;51.966;6.292;2023-06-26T14:53:56;0.10;;;0.10;;
44536;SDS011;30245;51.966;6.292;2023-06-26T14:56:21;0.28;;;0.10;;
44536;SDS011;30245;51.966;6.292;2023-06-26T14:58:47;0.77;;;0.10;;
44536;SDS011;30245;51.966;6.292;2023-06-26T15:01:13;1.52;;;0.20;;
44536;SDS011;30245;51.966;6.292;2023-06-26T15:03:41;1.13;;;0.28;;